sensor_id;sensor_type;location;lat;lon;timestamp;pressure;altitude;pressure_sealevel;temperature;humidity
43741;BME280;29352;48.708;9.290;2023-04-07T00:02:24;97889.97;;;-1.37;85.92
43741;BME280;29352;48.708;9.290;2023-04-07T00:04:51;97886.53;;;-1.96;87.37
43741;BME280;29352;48.708;9.290;2023-04-07T00:07:16;97884.03;;;-2.17;86.94
43741;BME280;29352;48.708;9.290;2023-04-07T00:09:41;97892.94;;;-2.29;89.00
43741;BME280;29352;48.708;9.290;2023-04-07T00:12:07;97879.34;;;-2.14;88.05
43741;BME280;29352;48.708;9.290;2023-04-07T00:14:32;97879.75;;;-2.18;88.97
43741;BME280;29352;48.708;9.290;2023-04-07T00:16:58;97877.69;;;-2.05;89.23
43741;BME280;29352;48.708;9.290;2023-04-07T00:19:23;97877.41;;;-2.21;89.28
43741;BME280;29352;48.708;9.290;2023-04-07T00:21:48;97877.38;;;-2.41;90.48
43741;BME280;29352;48.708;9.290;2023-04-07T00:24:14;97865.44;;;-2.14;90.66
43741;BME280;29352;48.708;9.290;2023-04-07T00:26:39;97874.81;;;-2.02;89.59
43741;BME280;29352;48.708;9.290;2023-04-07T00:29:05;97864.31;;;-2.21;89.96
43741;BME280;29352;48.708;9.290;2023-04-07T00:31:30;97865.09;;;-2.50;91.00
43741;BME280;29352;48.708;9.290;2023-04-07T00:33:55;97862.25;;;-2.18;89.46
43741;BME280;29352;48.708;9.290;2023-04-07T00:36:22;97861.94;;;-2.53;90.15
43741;BME280;29352;48.708;9.290;2023-04-07T00:38:47;97859.72;;;-2.58;90.38
43741;BME280;29352;48.708;9.290;2023-04-07T00:41:13;97860.03;;;-2.32;89.67
43741;BME280;29352;48.708;9.290;2023-04-07T00:43:38;97859.91;;;-2.40;89.18
43741;BME280;29352;48.708;9.290;2023-04-07T00:46:04;97858.91;;;-2.49;89.51
43741;BME280;29352;48.708;9.290;2023-04-07T00:48:30;97846.59;;;-1.98;87.21
43741;BME280;29352;48.708;9.290;2023-04-07T00:50:56;97838.31;;;-2.32;88.55
43741;BME280;29352;48.708;9.290;2023-04-07T00:53:21;97837.44;;;-2.52;89.03
43741;BME280;29352;48.708;9.290;2023-04-07T00:55:47;97838.56;;;-2.35;89.00
43741;BME280;29352;48.708;9.290;2023-04-07T00:58:12;97828.38;;;-2.39;88.49
43741;BME280;29352;48.708;9.290;2023-04-07T01:00:48;97822.91;;;-1.97;87.94
43741;BME280;29352;48.708;9.290;2023-04-07T01:03:36;97819.69;;;-1.52;85.60
43741;BME280;29352;48.708;9.290;2023-04-07T01:06:15;97812.69;;;-1.71;86.70
43741;BME280;29352;48.708;9.290;2023-04-07T01:14:59;97807.75;;;-1.93;87.00
43741;BME280;29352;48.708;9.290;2023-04-07T01:17:33;97814.34;;;-1.70;86.20
43741;BME280;29352;48.708;9.290;2023-04-07T01:20:04;97799.34;;;-1.58;85.56
43741;BME280;29352;48.708;9.290;2023-04-07T01:22:42;97796.69;;;-1.48;85.74
43741;BME280;29352;48.708;9.290;2023-04-07T01:25:51;97798.81;;;-1.24;86.17
43741;BME280;29352;48.708;9.290;2023-04-07T01:28:45;97791.91;;;-1.15;85.88
43741;BME280;29352;48.708;9.290;2023-04-07T01:31:22;97796.16;;;-1.52;88.38
43741;BME280;29352;48.708;9.290;2023-04-07T01:33:52;97786.19;;;-1.38;88.63
43741;BME280;29352;48.708;9.290;2023-04-07T01:36:21;97781.38;;;-1.33;85.84
43741;BME280;29352;48.708;9.290;2023-04-07T01:38:50;97785.66;;;-1.52;87.05
43741;BME280;29352;48.708;9.290;2023-04-07T01:41:18;97780.13;;;-1.39;87.37
43741;BME280;29352;48.708;9.290;2023-04-07T01:43:45;97784.81;;;-1.43;87.77
43741;BME280;29352;48.708;9.290;2023-04-07T01:46:13;97786.69;;;-1.25;89.15
43741;BME280;29352;48.708;9.290;2023-04-07T01:48:39;97782.22;;;-1.05;87.46
43741;BME280;29352;48.708;9.290;2023-04-07T01:51:07;97773.22;;;-1.30;87.86
43741;BME280;29352;48.708;9.290;2023-04-07T01:53:37;97769.34;;;-0.99;86.99
43741;BME280;29352;48.708;9.290;2023-04-07T01:56:04;97781.72;;;-1.19;87.55
43741;BME280;29352;48.708;9.290;2023-04-07T01:58:29;97774.63;;;-1.08;88.74
43741;BME280;29352;48.708;9.290;2023-04-07T02:00:55;97778.75;;;-1.33;87.39
43741;BME280;29352;48.708;9.290;2023-04-07T02:03:30;97769.72;;;-1.68;89.03
43741;BME280;29352;48.708;9.290;2023-04-07T02:06:08;97776.75;;;-1.59;90.37
43741;BME280;29352;48.708;9.290;2023-04-07T02:08:46;97772.69;;;-1.34;88.74
43741;BME280;29352;48.708;9.290;2023-04-07T02:11:19;97771.47;;;-1.49;88.49
43741;BME280;29352;48.708;9.290;2023-04-07T02:13:46;97756.66;;;-1.78;89.67
43741;BME280;29352;48.708;9.290;2023-04-07T02:16:13;97762.13;;;-1.52;90.25
43741;BME280;29352;48.708;9.290;2023-04-07T02:18:43;97760.47;;;-1.53;89.10
43741;BME280;29352;48.708;9.290;2023-04-07T02:21:12;97763.66;;;-1.69;88.66
43741;BME280;29352;48.708;9.290;2023-04-07T02:23:39;97760.06;;;-1.68;88.70
43741;BME280;29352;48.708;9.290;2023-04-07T02:26:05;97758.47;;;-1.31;86.34
43741;BME280;29352;48.708;9.290;2023-04-07T02:28:31;97755.22;;;-1.15;86.84
43741;BME280;29352;48.708;9.290;2023-04-07T02:30:56;97757.56;;;-1.50;88.78
43741;BME280;29352;48.708;9.290;2023-04-07T02:33:21;97754.56;;;-1.55;89.58
43741;BME280;29352;48.708;9.290;2023-04-07T02:35:47;97747.00;;;-1.68;88.61
43741;BME280;29352;48.708;9.290;2023-04-07T02:38:12;97750.97;;;-1.54;89.36
43741;BME280;29352;48.708;9.290;2023-04-07T02:40:37;97747.41;;;-1.62;88.75
43741;BME280;29352;48.708;9.290;2023-04-07T02:43:03;97742.06;;;-1.61;87.87
43741;BME280;29352;48.708;9.290;2023-04-07T02:45:29;97740.41;;;-1.72;88.63
43741;BME280;29352;48.708;9.290;2023-04-07T02:47:55;97741.03;;;-2.07;90.85
43741;BME280;29352;48.708;9.290;2023-04-07T02:50:21;97736.38;;;-1.66;91.47
43741;BME280;29352;48.708;9.290;2023-04-07T02:52:46;97737.50;;;-1.69;90.96
43741;BME280;29352;48.708;9.290;2023-04-07T02:55:12;97732.41;;;-1.23;89.63
43741;BME280;29352;48.708;9.290;2023-04-07T02:57:37;97739.75;;;-1.09;88.54
43741;BME280;29352;48.708;9.290;2023-04-07T03:00:03;97728.19;;;-1.06;87.36
43741;BME280;29352;48.708;9.290;2023-04-07T03:02:29;97730.63;;;-1.32;88.01
43741;BME280;29352;48.708;9.290;2023-04-07T03:04:54;97728.31;;;-1.35;87.57
43741;BME280;29352;48.708;9.290;2023-04-07T03:07:20;97726.41;;;-1.43;87.80
43741;BME280;29352;48.708;9.290;2023-04-07T03:09:45;97720.03;;;-1.87;90.33
43741;BME280;29352;48.708;9.290;2023-04-07T03:12:11;97718.41;;;-1.98;90.76
43741;BME280;29352;48.708;9.290;2023-04-07T03:14:36;97713.34;;;-1.53;90.24
43741;BME280;29352;48.708;9.290;2023-04-07T03:17:03;97710.34;;;-1.58;90.45
43741;BME280;29352;48.708;9.290;2023-04-07T03:19:28;97712.56;;;-1.26;87.18
43741;BME280;29352;48.708;9.290;2023-04-07T03:21:54;97715.91;;;-1.33;88.23
43741;BME280;29352;48.708;9.290;2023-04-07T03:24:19;97715.38;;;-1.37;89.11
43741;BME280;29352;48.708;9.290;2023-04-07T03:26:45;97709.63;;;-0.95;86.65
43741;BME280;29352;48.708;9.290;2023-04-07T03:29:11;97709.06;;;-0.71;84.98
43741;BME280;29352;48.708;9.290;2023-04-07T03:31:36;97712.22;;;-1.40;88.58
43741;BME280;29352;48.708;9.290;2023-04-07T03:34:02;97705.72;;;-1.36;88.97
43741;BME280;29352;48.708;9.290;2023-04-07T03:36:29;97711.38;;;-1.13;87.61
43741;BME280;29352;48.708;9.290;2023-04-07T03:38:56;97701.22;;;-1.16;86.40
43741;BME280;29352;48.708;9.290;2023-04-07T03:41:21;97705.50;;;-1.25;89.03
43741;BME280;29352;48.708;9.290;2023-04-07T03:43:47;97703.91;;;-1.08;87.27
43741;BME280;29352;48.708;9.290;2023-04-07T03:46:13;97702.69;;;-1.14;86.65
43741;BME280;29352;48.708;9.290;2023-04-07T03:48:38;97692.13;;;-0.77;83.39
43741;BME280;29352;48.708;9.290;2023-04-07T03:51:05;97697.66;;;-0.98;83.82
43741;BME280;29352;48.708;9.290;2023-04-07T03:53:31;97701.63;;;-1.21;87.95
43741;BME280;29352;48.708;9.290;2023-04-07T03:55:56;97699.41;;;-1.16;88.52
43741;BME280;29352;48.708;9.290;2023-04-07T03:58:22;97687.75;;;-1.31;88.29
43741;BME280;29352;48.708;9.290;2023-04-07T04:00:48;97692.81;;;-1.48;90.46
43741;BME280;29352;48.708;9.290;2023-04-07T04:03:13;97689.53;;;-1.22;87.14
43741;BME280;29352;48.708;9.290;2023-04-07T04:05:39;97690.78;;;-1.26;89.29
43741;BME280;29352;48.708;9.290;2023-04-07T04:08:05;97698.69;;;-0.90;86.98
43741;BME280;29352;48.708;9.290;2023-04-07T04:10:30;97687.25;;;-0.54;82.96
43741;BME280;29352;48.708;9.290;2023-04-07T04:12:56;97682.69;;;-0.69;82.38
43741;BME280;29352;48.708;9.290;2023-04-07T04:15:25;97678.78;;;-0.83;84.38
43741;BME280;29352;48.708;9.290;2023-04-07T04:17:50;97686.59;;;-0.74;83.36
43741;BME280;29352;48.708;9.290;2023-04-07T04:20:17;97685.81;;;-0.48;83.22
43741;BME280;29352;48.708;9.290;2023-04-07T04:22:42;97678.13;;;-0.50;81.81
43741;BME280;29352;48.708;9.290;2023-04-07T04:25:08;97680.91;;;-1.14;85.49
43741;BME280;29352;48.708;9.290;2023-04-07T04:27:34;97679.25;;;-1.33;86.25
43741;BME280;29352;48.708;9.290;2023-04-07T04:29:59;97674.84;;;-1.33;85.90
43741;BME280;29352;48.708;9.290;2023-04-07T04:32:25;97684.28;;;-1.50;84.91
43741;BME280;29352;48.708;9.290;2023-04-07T04:34:50;97674.88;;;-1.43;86.14
43741;BME280;29352;48.708;9.290;2023-04-07T04:37:16;97673.38;;;-1.45;87.06
43741;BME280;29352;48.708;9.290;2023-04-07T04:39:41;97679.53;;;-1.36;88.32
43741;BME280;29352;48.708;9.290;2023-04-07T04:42:06;97674.63;;;-1.22;87.33
43741;BME280;29352;48.708;9.290;2023-04-07T04:44:32;97667.50;;;-0.84;84.96
43741;BME280;29352;48.708;9.290;2023-04-07T04:46:57;97676.69;;;-0.98;84.44
43741;BME280;29352;48.708;9.290;2023-04-07T04:49:23;97674.06;;;-0.80;84.04
43741;BME280;29352;48.708;9.290;2023-04-07T04:51:48;97676.59;;;-1.06;84.70
43741;BME280;29352;48.708;9.290;2023-04-07T04:54:15;97683.47;;;-1.23;86.72
43741;BME280;29352;48.708;9.290;2023-04-07T04:56:41;97684.84;;;-1.28;88.01
43741;BME280;29352;48.708;9.290;2023-04-07T04:59:06;97684.47;;;-1.33;89.21
43741;BME280;29352;48.708;9.290;2023-04-07T05:01:32;97678.75;;;-1.19;87.86
43741;BME280;29352;48.708;9.290;2023-04-07T05:03:57;97690.50;;;-1.51;87.77
43741;BME280;29352;48.708;9.290;2023-04-07T05:06:23;97688.38;;;-1.37;89.62
43741;BME280;29352;48.708;9.290;2023-04-07T05:08:48;97682.78;;;-1.25;89.23
43741;BME280;29352;48.708;9.290;2023-04-07T05:11:14;97683.59;;;-1.24;89.26
43741;BME280;29352;48.708;9.290;2023-04-07T05:13:40;97680.84;;;-1.23;89.07
43741;BME280;29352;48.708;9.290;2023-04-07T05:16:06;97683.91;;;-1.64;87.83
43741;BME280;29352;48.708;9.290;2023-04-07T05:18:31;97681.50;;;-1.48;88.05
43741;BME280;29352;48.708;9.290;2023-04-07T05:20:57;97681.47;;;-1.38;89.64
43741;BME280;29352;48.708;9.290;2023-04-07T05:23:22;97677.41;;;-1.51;88.63
43741;BME280;29352;48.708;9.290;2023-04-07T05:25:48;97677.75;;;-1.36;88.49
43741;BME280;29352;48.708;9.290;2023-04-07T05:28:14;97682.47;;;-1.22;88.38
43741;BME280;29352;48.708;9.290;2023-04-07T05:30:39;97685.59;;;-1.36;88.42
43741;BME280;29352;48.708;9.290;2023-04-07T05:33:05;97684.13;;;-1.21;88.08
43741;BME280;29352;48.708;9.290;2023-04-07T05:35:30;97683.53;;;-1.42;87.83
43741;BME280;29352;48.708;9.290;2023-04-07T05:37:56;97680.34;;;-1.36;87.82
43741;BME280;29352;48.708;9.290;2023-04-07T05:40:21;97689.97;;;-1.27;86.86
43741;BME280;29352;48.708;9.290;2023-04-07T05:42:47;97690.88;;;-1.18;86.02
43741;BME280;29352;48.708;9.290;2023-04-07T05:45:12;97687.19;;;-1.25;86.80
43741;BME280;29352;48.708;9.290;2023-04-07T05:47:38;97686.84;;;-1.12;86.46
43741;BME280;29352;48.708;9.290;2023-04-07T05:50:03;97684.22;;;-1.12;87.38
43741;BME280;29352;48.708;9.290;2023-04-07T05:52:29;97677.59;;;-0.71;85.01
43741;BME280;29352;48.708;9.290;2023-04-07T05:54:55;97679.31;;;-0.44;84.03
43741;BME280;29352;48.708;9.290;2023-04-07T05:57:20;97680.88;;;-0.69;84.14
43741;BME280;29352;48.708;9.290;2023-04-07T05:59:46;97676.25;;;-0.75;85.07
43741;BME280;29352;48.708;9.290;2023-04-07T06:02:12;97684.53;;;-0.26;82.73
43741;BME280;29352;48.708;9.290;2023-04-07T06:04:38;97684.16;;;-0.31;82.58
43741;BME280;29352;48.708;9.290;2023-04-07T06:07:04;97690.16;;;-0.39;83.42
43741;BME280;29352;48.708;9.290;2023-04-07T06:09:29;97691.31;;;-0.77;84.42
43741;BME280;29352;48.708;9.290;2023-04-07T06:11:55;97691.09;;;-1.11;85.62
43741;BME280;29352;48.708;9.290;2023-04-07T06:14:21;97695.19;;;-0.45;83.87
43741;BME280;29352;48.708;9.290;2023-04-07T06:16:46;97691.53;;;-0.53;83.70
43741;BME280;29352;48.708;9.290;2023-04-07T06:19:12;97692.31;;;-0.34;83.96
43741;BME280;29352;48.708;9.290;2023-04-07T06:21:37;97697.56;;;-0.34;82.65
43741;BME280;29352;48.708;9.290;2023-04-07T06:24:04;97694.28;;;-0.36;84.05
43741;BME280;29352;48.708;9.290;2023-04-07T06:26:30;97691.56;;;-0.09;83.27
43741;BME280;29352;48.708;9.290;2023-04-07T06:28:57;97694.06;;;-0.43;85.19
43741;BME280;29352;48.708;9.290;2023-04-07T06:31:24;97683.72;;;-0.62;86.60
43741;BME280;29352;48.708;9.290;2023-04-07T06:33:50;97691.47;;;-0.61;84.50
43741;BME280;29352;48.708;9.290;2023-04-07T06:36:16;97696.31;;;-0.30;85.19
43741;BME280;29352;48.708;9.290;2023-04-07T06:38:42;97695.50;;;-0.84;86.69
43741;BME280;29352;48.708;9.290;2023-04-07T06:41:08;97693.03;;;-0.50;86.76
43741;BME280;29352;48.708;9.290;2023-04-07T06:43:37;97691.16;;;-0.40;87.97
43741;BME280;29352;48.708;9.290;2023-04-07T06:46:02;97690.63;;;-0.43;87.14
43741;BME280;29352;48.708;9.290;2023-04-07T06:48:28;97694.06;;;-0.43;86.10
43741;BME280;29352;48.708;9.290;2023-04-07T06:50:53;97683.97;;;-0.56;86.35
43741;BME280;29352;48.708;9.290;2023-04-07T06:53:18;97688.91;;;-0.88;87.15
43741;BME280;29352;48.708;9.290;2023-04-07T06:55:44;97685.13;;;-1.04;86.17
43741;BME280;29352;48.708;9.290;2023-04-07T06:58:10;97687.41;;;-0.73;86.66
43741;BME280;29352;48.708;9.290;2023-04-07T07:00:36;97689.88;;;0.08;83.96
43741;BME280;29352;48.708;9.290;2023-04-07T07:03:01;97683.22;;;0.22;82.60
43741;BME280;29352;48.708;9.290;2023-04-07T07:05:27;97683.13;;;-0.56;85.14
43741;BME280;29352;48.708;9.290;2023-04-07T07:07:53;97687.16;;;-0.00;83.20
43741;BME280;29352;48.708;9.290;2023-04-07T07:10:18;97677.13;;;0.21;81.75
43741;BME280;29352;48.708;9.290;2023-04-07T07:12:50;97674.47;;;-0.13;82.91
43741;BME280;29352;48.708;9.290;2023-04-07T07:15:15;97674.97;;;0.85;78.97
43741;BME280;29352;48.708;9.290;2023-04-07T07:17:42;97675.97;;;0.84;78.93
43741;BME280;29352;48.708;9.290;2023-04-07T07:20:09;97671.97;;;1.72;75.39
43741;BME280;29352;48.708;9.290;2023-04-07T07:22:34;97670.34;;;1.54;76.11
43741;BME280;29352;48.708;9.290;2023-04-07T07:25:00;97679.34;;;1.19;75.98
43741;BME280;29352;48.708;9.290;2023-04-07T07:27:25;97677.22;;;1.80;75.96
43741;BME280;29352;48.708;9.290;2023-04-07T07:29:51;97678.28;;;2.51;73.02
43741;BME280;29352;48.708;9.290;2023-04-07T07:32:16;97666.75;;;3.45;71.74
43741;BME280;29352;48.708;9.290;2023-04-07T07:34:42;97672.38;;;3.65;69.35
43741;BME280;29352;48.708;9.290;2023-04-07T07:37:07;97667.03;;;4.70;66.67
43741;BME280;29352;48.708;9.290;2023-04-07T07:39:32;97675.09;;;5.20;65.21
43741;BME280;29352;48.708;9.290;2023-04-07T07:41:58;97681.50;;;5.26;64.41
43741;BME280;29352;48.708;9.290;2023-04-07T07:44:25;97679.41;;;5.21;65.33
43741;BME280;29352;48.708;9.290;2023-04-07T07:46:51;97679.09;;;5.31;63.98
43741;BME280;29352;48.708;9.290;2023-04-07T07:49:16;97684.50;;;5.22;63.45
43741;BME280;29352;48.708;9.290;2023-04-07T07:51:41;97679.31;;;5.72;61.75
43741;BME280;29352;48.708;9.290;2023-04-07T07:54:07;97687.16;;;4.71;63.74
43741;BME280;29352;48.708;9.290;2023-04-07T07:56:33;97682.00;;;3.58;65.44
43741;BME280;29352;48.708;9.290;2023-04-07T07:58:59;97678.03;;;4.74;64.24
43741;BME280;29352;48.708;9.290;2023-04-07T08:01:25;97673.09;;;8.51;57.53
43741;BME280;29352;48.708;9.290;2023-04-07T08:03:50;97661.03;;;10.46;52.93
43741;BME280;29352;48.708;9.290;2023-04-07T08:06:16;97662.31;;;12.36;47.64
43741;BME280;29352;48.708;9.290;2023-04-07T08:08:41;97658.88;;;11.70;50.41
43741;BME280;29352;48.708;9.290;2023-04-07T08:11:07;97657.50;;;11.91;49.46
43741;BME280;29352;48.708;9.290;2023-04-07T08:13:32;97663.97;;;13.29;46.20
43741;BME280;29352;48.708;9.290;2023-04-07T08:15:58;97670.38;;;11.70;50.46
43741;BME280;29352;48.708;9.290;2023-04-07T08:18:23;97667.69;;;12.99;46.01
43741;BME280;29352;48.708;9.290;2023-04-07T08:20:49;97663.06;;;13.23;46.98
43741;BME280;29352;48.708;9.290;2023-04-07T08:23:16;97667.09;;;10.34;50.71
43741;BME280;29352;48.708;9.290;2023-04-07T08:25:41;97670.66;;;11.50;49.28
43741;BME280;29352;48.708;9.290;2023-04-07T08:28:07;97671.13;;;12.48;48.09
43741;BME280;29352;48.708;9.290;2023-04-07T08:30:32;97667.78;;;12.17;49.02
43741;BME280;29352;48.708;9.290;2023-04-07T08:32:58;97656.69;;;12.72;48.05
43741;BME280;29352;48.708;9.290;2023-04-07T08:35:23;97666.81;;;12.00;48.19
43741;BME280;29352;48.708;9.290;2023-04-07T08:37:49;97658.84;;;11.58;47.89
43741;BME280;29352;48.708;9.290;2023-04-07T08:40:15;97660.16;;;11.79;48.54
43741;BME280;29352;48.708;9.290;2023-04-07T08:42:45;97665.31;;;11.50;49.77
43741;BME280;29352;48.708;9.290;2023-04-07T08:45:12;97665.00;;;12.24;47.79
43741;BME280;29352;48.708;9.290;2023-04-07T08:47:39;97660.97;;;12.97;48.31
43741;BME280;29352;48.708;9.290;2023-04-07T08:50:10;97660.88;;;12.57;48.84
43741;BME280;29352;48.708;9.290;2023-04-07T08:52:49;97665.75;;;13.69;46.42
43741;BME280;29352;48.708;9.290;2023-04-07T08:55:18;97666.81;;;12.70;45.99
43741;BME280;29352;48.708;9.290;2023-04-07T08:57:45;97670.72;;;13.32;47.23
43741;BME280;29352;48.708;9.290;2023-04-07T09:00:14;97677.75;;;13.21;48.56
43741;BME280;29352;48.708;9.290;2023-04-07T09:02:42;97664.81;;;13.75;46.98
43741;BME280;29352;48.708;9.290;2023-04-07T09:05:13;97671.28;;;13.34;46.51
43741;BME280;29352;48.708;9.290;2023-04-07T09:07:38;97658.56;;;14.59;44.83
43741;BME280;29352;48.708;9.290;2023-04-07T09:10:07;97662.84;;;13.70;43.87
43741;BME280;29352;48.708;9.290;2023-04-07T09:12:34;97661.75;;;15.00;44.99
43741;BME280;29352;48.708;9.290;2023-04-07T09:15:00;97664.16;;;14.18;45.27
43741;BME280;29352;48.708;9.290;2023-04-07T09:17:27;97670.25;;;13.52;45.62
43741;BME280;29352;48.708;9.290;2023-04-07T09:19:58;97674.03;;;12.11;48.45
43741;BME280;29352;48.708;9.290;2023-04-07T09:22:42;97673.19;;;11.99;48.15
43741;BME280;29352;48.708;9.290;2023-04-07T09:25:22;97670.19;;;11.42;47.86
43741;BME280;29352;48.708;9.290;2023-04-07T09:28:03;97672.59;;;9.96;50.59
43741;BME280;29352;48.708;9.290;2023-04-07T09:30:31;97671.75;;;10.82;49.18
43741;BME280;29352;48.708;9.290;2023-04-07T09:32:59;97675.53;;;10.56;50.16
43741;BME280;29352;48.708;9.290;2023-04-07T09:35:25;97664.97;;;11.47;48.29
43741;BME280;29352;48.708;9.290;2023-04-07T09:40:31;97671.50;;;10.84;50.02
43741;BME280;29352;48.708;9.290;2023-04-07T09:42:57;97670.16;;;9.63;51.17
43741;BME280;29352;48.708;9.290;2023-04-07T09:45:24;97678.25;;;9.05;51.55
43741;BME280;29352;48.708;9.290;2023-04-07T09:47:52;97683.09;;;8.63;52.95
43741;BME280;29352;48.708;9.290;2023-04-07T09:50:43;97677.88;;;8.94;52.96
43741;BME280;29352;48.708;9.290;2023-04-07T09:53:14;97667.75;;;8.71;54.13
43741;BME280;29352;48.708;9.290;2023-04-07T09:55:41;97671.38;;;8.84;54.23
43741;BME280;29352;48.708;9.290;2023-04-07T09:58:11;97663.59;;;9.65;50.87
43741;BME280;29352;48.708;9.290;2023-04-07T10:00:41;97659.47;;;9.31;52.78
43741;BME280;29352;48.708;9.290;2023-04-07T10:03:07;97671.41;;;8.77;52.05
43741;BME280;29352;48.708;9.290;2023-04-07T10:05:33;97656.94;;;9.43;51.38
43741;BME280;29352;48.708;9.290;2023-04-07T10:08:01;97666.00;;;9.35;53.94
43741;BME280;29352;48.708;9.290;2023-04-07T10:10:27;97661.81;;;9.14;52.79
43741;BME280;29352;48.708;9.290;2023-04-07T10:12:56;97663.78;;;9.32;50.87
43741;BME280;29352;48.708;9.290;2023-04-07T10:15:23;97661.66;;;9.09;51.34
43741;BME280;29352;48.708;9.290;2023-04-07T10:17:50;97660.13;;;9.90;49.65
43741;BME280;29352;48.708;9.290;2023-04-07T10:20:18;97655.06;;;9.12;52.07
43741;BME280;29352;48.708;9.290;2023-04-07T10:22:47;97667.59;;;9.05;52.30
43741;BME280;29352;48.708;9.290;2023-04-07T10:25:18;97666.16;;;8.44;51.42
43741;BME280;29352;48.708;9.290;2023-04-07T10:27:53;97663.28;;;9.10;52.50
43741;BME280;29352;48.708;9.290;2023-04-07T10:30:29;97670.41;;;8.71;51.91
43741;BME280;29352;48.708;9.290;2023-04-07T10:32:56;97669.19;;;8.67;54.38
43741;BME280;29352;48.708;9.290;2023-04-07T10:35:23;97667.34;;;8.74;53.96
43741;BME280;29352;48.708;9.290;2023-04-07T10:40:35;97676.06;;;7.77;54.96
43741;BME280;29352;48.708;9.290;2023-04-07T10:43:02;97666.63;;;7.74;55.62
43741;BME280;29352;48.708;9.290;2023-04-07T10:46:01;97669.22;;;7.41;58.05
43741;BME280;29352;48.708;9.290;2023-04-07T10:48:27;97665.75;;;7.41;58.15
43741;BME280;29352;48.708;9.290;2023-04-07T10:53:30;97674.72;;;7.33;57.97
43741;BME280;29352;48.708;9.290;2023-04-07T10:55:56;97673.94;;;7.66;56.30
43741;BME280;29352;48.708;9.290;2023-04-07T10:58:27;97665.78;;;8.27;55.87
43741;BME280;29352;48.708;9.290;2023-04-07T11:03:35;97670.53;;;7.98;55.42
43741;BME280;29352;48.708;9.290;2023-04-07T11:06:13;97675.22;;;8.23;55.01
43741;BME280;29352;48.708;9.290;2023-04-07T11:08:42;97675.78;;;8.38;53.68
43741;BME280;29352;48.708;9.290;2023-04-07T11:11:14;97672.31;;;7.65;54.43
43741;BME280;29352;48.708;9.290;2023-04-07T11:16:09;97667.81;;;8.38;55.49
43741;BME280;29352;48.708;9.290;2023-04-07T11:18:36;97662.63;;;9.15;53.73
43741;BME280;29352;48.708;9.290;2023-04-07T11:21:02;97672.75;;;8.99;54.01
43741;BME280;29352;48.708;9.290;2023-04-07T11:23:42;97665.50;;;9.20;51.92
43741;BME280;29352;48.708;9.290;2023-04-07T11:26:12;97659.53;;;9.56;51.43
43741;BME280;29352;48.708;9.290;2023-04-07T11:28:46;97661.59;;;9.54;51.46
43741;BME280;29352;48.708;9.290;2023-04-07T11:31:22;97668.28;;;9.32;51.36
43741;BME280;29352;48.708;9.290;2023-04-07T11:33:58;97665.34;;;9.08;51.82
43741;BME280;29352;48.708;9.290;2023-04-07T11:36:34;97669.97;;;9.26;51.53
43741;BME280;29352;48.708;9.290;2023-04-07T11:39:02;97668.66;;;9.35;51.77
43741;BME280;29352;48.708;9.290;2023-04-07T11:41:30;97674.25;;;9.27;50.28
43741;BME280;29352;48.708;9.290;2023-04-07T11:46:35;97666.53;;;8.74;52.79
43741;BME280;29352;48.708;9.290;2023-04-07T11:49:12;97682.16;;;8.24;51.96
43741;BME280;29352;48.708;9.290;2023-04-07T11:51:43;97679.31;;;7.79;53.52
43741;BME280;29352;48.708;9.290;2023-04-07T11:54:09;97682.75;;;8.39;53.96
43741;BME280;29352;48.708;9.290;2023-04-07T11:56:46;97680.91;;;7.67;54.12
43741;BME280;29352;48.708;9.290;2023-04-07T11:59:20;97679.44;;;7.44;54.80
43741;BME280;29352;48.708;9.290;2023-04-07T12:01:49;97678.91;;;7.95;54.47
43741;BME280;29352;48.708;9.290;2023-04-07T12:04:17;97680.53;;;7.76;52.79
43741;BME280;29352;48.708;9.290;2023-04-07T12:06:45;97674.78;;;7.59;52.60
43741;BME280;29352;48.708;9.290;2023-04-07T12:09:32;97688.19;;;7.38;53.14
43741;BME280;29352;48.708;9.290;2023-04-07T12:12:02;97684.03;;;7.02;53.65
43741;BME280;29352;48.708;9.290;2023-04-07T12:14:29;97690.50;;;6.93;54.24
43741;BME280;29352;48.708;9.290;2023-04-07T12:16:55;97689.72;;;6.99;54.79
43741;BME280;29352;48.708;9.290;2023-04-07T12:19:26;97696.91;;;7.05;54.21
43741;BME280;29352;48.708;9.290;2023-04-07T12:21:53;97702.78;;;6.94;53.98
43741;BME280;29352;48.708;9.290;2023-04-07T12:24:20;97704.63;;;6.65;55.66
43741;BME280;29352;48.708;9.290;2023-04-07T12:26:46;97703.69;;;6.38;57.33
43741;BME280;29352;48.708;9.290;2023-04-07T12:29:12;97711.66;;;6.45;58.90
43741;BME280;29352;48.708;9.290;2023-04-07T12:31:38;97714.75;;;6.21;59.93
43741;BME280;29352;48.708;9.290;2023-04-07T12:34:03;97706.78;;;5.92;60.52
43741;BME280;29352;48.708;9.290;2023-04-07T12:36:29;97717.22;;;5.00;63.73
43741;BME280;29352;48.708;9.290;2023-04-07T12:38:55;97724.06;;;4.94;64.60
43741;BME280;29352;48.708;9.290;2023-04-07T12:41:22;97722.81;;;4.61;65.30
43741;BME280;29352;48.708;9.290;2023-04-07T12:43:48;97735.03;;;4.77;64.96
43741;BME280;29352;48.708;9.290;2023-04-07T12:46:14;97729.19;;;4.66;65.45
43741;BME280;29352;48.708;9.290;2023-04-07T12:48:39;97720.16;;;4.61;65.39
43741;BME280;29352;48.708;9.290;2023-04-07T12:51:05;97715.72;;;4.23;65.23
43741;BME280;29352;48.708;9.290;2023-04-07T12:53:31;97721.50;;;4.42;65.49
43741;BME280;29352;48.708;9.290;2023-04-07T12:55:57;97719.69;;;3.90;66.75
43741;BME280;29352;48.708;9.290;2023-04-07T12:58:23;97722.38;;;3.82;67.74
43741;BME280;29352;48.708;9.290;2023-04-07T13:00:50;97728.59;;;3.43;69.94
43741;BME280;29352;48.708;9.290;2023-04-07T13:03:17;97727.84;;;3.57;72.34
43741;BME280;29352;48.708;9.290;2023-04-07T13:05:43;97737.59;;;2.86;77.04
43741;BME280;29352;48.708;9.290;2023-04-07T13:08:08;97734.66;;;3.12;78.15
43741;BME280;29352;48.708;9.290;2023-04-07T13:10:35;97743.16;;;2.91;79.03
43741;BME280;29352;48.708;9.290;2023-04-07T13:13:00;97739.97;;;3.04;79.31
43741;BME280;29352;48.708;9.290;2023-04-07T13:15:26;97736.00;;;3.08;78.94
43741;BME280;29352;48.708;9.290;2023-04-07T13:17:52;97739.31;;;3.02;78.85
43741;BME280;29352;48.708;9.290;2023-04-07T13:20:19;97739.66;;;3.07;80.41
43741;BME280;29352;48.708;9.290;2023-04-07T13:22:44;97739.84;;;2.58;80.42
43741;BME280;29352;48.708;9.290;2023-04-07T13:25:10;97741.72;;;2.80;80.41
43741;BME280;29352;48.708;9.290;2023-04-07T13:27:35;97735.34;;;2.67;79.29
43741;BME280;29352;48.708;9.290;2023-04-07T13:30:01;97729.81;;;2.45;82.04